Jarvis, Kentucky
Current Conditions -  °F | °C
As of 10:53 AM on Monday 26 Jan 2015 (Local Time) from KLOZ Reporting Station
Overcast Overcast  
Wind Chill: 18°   Ceiling: 600
Heat Index: 28°   Visibility: 7mi
Dew Point: 22°   Wind: 12mph
Humidity: 78%   Direction: 290°WNW
Pressure: 29.88"   Gusts: NA
Location:  36.865°N, 83.9507°W
Report Text: KLOZ 261553Z AUTO 29010KT 7SM OVC006 M02/M06 A2988 RMK AO2 UPE01SNB01E03 SLP124 P0000 T10221056
Loading
Personal Weather Stations






























Interactive Weather Map New forecast layout! Learn more

10-Day Weather Forecast

Advertisements
Track Severe Weather on mobile